sensor_id;sensor_type;location;lat;lon;timestamp;pressure;altitude;pressure_sealevel;temperature;humidity
54306;BME280;66145;45.188;5.712;2023-05-01T00:01:33;99086.44;;;18.31;56.05
54306;BME280;66145;45.188;5.712;2023-05-01T00:03:58;99118.28;;;18.59;55.88
54306;BME280;66145;45.188;5.712;2023-05-01T00:06:24;99104.09;;;18.57;55.56
54306;BME280;66145;45.188;5.712;2023-05-01T00:08:50;99111.22;;;18.66;55.76
54306;BME280;66145;45.188;5.712;2023-05-01T00:11:15;99088.78;;;18.55;55.71
54306;BME280;66145;45.188;5.712;2023-05-01T00:13:40;99069.28;;;18.48;55.42
54306;BME280;66145;45.188;5.712;2023-05-01T00:16:10;99065.59;;;18.53;55.39
54306;BME280;66145;45.188;5.712;2023-05-01T00:18:37;99108.69;;;18.79;55.18
54306;BME280;66145;45.188;5.712;2023-05-01T00:21:02;99096.44;;;18.76;55.31
54306;BME280;66145;45.188;5.712;2023-05-01T00:23:28;99099.66;;;18.78;55.33
54306;BME280;66145;45.188;5.712;2023-05-01T00:25:53;99094.03;;;18.75;55.27
54306;BME280;66145;45.188;5.712;2023-05-01T00:28:18;99078.84;;;18.68;55.30
54306;BME280;66145;45.188;5.712;2023-05-01T00:30:44;99042.34;;;18.42;55.45
54306;BME280;66145;45.188;5.712;2023-05-01T00:33:10;99101.28;;;18.79;55.27
54306;BME280;66145;45.188;5.712;2023-05-01T00:35:35;99100.00;;;18.77;55.32
54306;BME280;66145;45.188;5.712;2023-05-01T00:38:01;99087.72;;;18.74;55.40
54306;BME280;66145;45.188;5.712;2023-05-01T00:40:26;99005.84;;;18.15;55.46
54306;BME280;66145;45.188;5.712;2023-05-01T00:42:52;99087.41;;;18.76;55.38
54306;BME280;66145;45.188;5.712;2023-05-01T00:45:18;99095.94;;;18.74;55.53
54306;BME280;66145;45.188;5.712;2023-05-01T00:47:43;99068.84;;;18.64;55.26
54306;BME280;66145;45.188;5.712;2023-05-01T00:50:09;99088.06;;;18.81;55.24
54306;BME280;66145;45.188;5.712;2023-05-01T00:52:34;99080.81;;;18.85;55.00
54306;BME280;66145;45.188;5.712;2023-05-01T00:55:00;99068.06;;;18.81;55.25
54306;BME280;66145;45.188;5.712;2023-05-01T00:57:26;99038.25;;;18.70;55.07
54306;BME280;66145;45.188;5.712;2023-05-01T00:59:51;99046.00;;;18.77;55.17
54306;BME280;66145;45.188;5.712;2023-05-01T01:02:17;99054.88;;;18.83;55.04
54306;BME280;66145;45.188;5.712;2023-05-01T01:04:46;98988.88;;;18.44;54.96
54306;BME280;66145;45.188;5.712;2023-05-01T01:10:12;99062.94;;;18.88;54.85
54306;BME280;66145;45.188;5.712;2023-05-01T01:13:00;99065.34;;;18.90;55.00
54306;BME280;66145;45.188;5.712;2023-05-01T01:18:18;99053.91;;;18.88;54.92
54306;BME280;66145;45.188;5.712;2023-05-01T01:26:42;99039.72;;;18.85;55.28
54306;BME280;66145;45.188;5.712;2023-05-01T01:29:50;99043.09;;;18.82;55.27
54306;BME280;66145;45.188;5.712;2023-05-01T01:35:00;98997.94;;;18.62;55.19
54306;BME280;66145;45.188;5.712;2023-05-01T01:37:44;99002.47;;;18.67;55.14
54306;BME280;66145;45.188;5.712;2023-05-01T01:40:16;99004.09;;;18.77;55.24
54306;BME280;66145;45.188;5.712;2023-05-01T01:42:50;98970.22;;;18.55;54.90
54306;BME280;66145;45.188;5.712;2023-05-01T01:45:21;99026.88;;;18.95;54.86
54306;BME280;66145;45.188;5.712;2023-05-01T01:47:48;99006.50;;;18.78;54.85
54306;BME280;66145;45.188;5.712;2023-05-01T01:50:17;98971.34;;;18.54;55.06
54306;BME280;66145;45.188;5.712;2023-05-01T01:52:48;99033.44;;;18.94;55.09
54306;BME280;66145;45.188;5.712;2023-05-01T01:55:16;98984.56;;;18.61;55.22
54306;BME280;66145;45.188;5.712;2023-05-01T01:57:45;99018.59;;;18.77;55.21
54306;BME280;66145;45.188;5.712;2023-05-01T02:00:14;98968.09;;;18.52;55.20
54306;BME280;66145;45.188;5.712;2023-05-01T02:02:41;99018.59;;;18.86;55.16
54306;BME280;66145;45.188;5.712;2023-05-01T02:05:10;99033.44;;;18.94;55.17
54306;BME280;66145;45.188;5.712;2023-05-01T02:07:39;98996.50;;;18.74;55.03
54306;BME280;66145;45.188;5.712;2023-05-01T02:10:07;99017.34;;;18.92;54.79
54306;BME280;66145;45.188;5.712;2023-05-01T02:12:34;99008.28;;;18.92;55.08
54306;BME280;66145;45.188;5.712;2023-05-01T02:15:01;99030.09;;;19.06;54.70
54306;BME280;66145;45.188;5.712;2023-05-01T02:17:27;99014.94;;;18.99;54.73
54306;BME280;66145;45.188;5.712;2023-05-01T02:19:54;98929.75;;;18.43;54.98
54306;BME280;66145;45.188;5.712;2023-05-01T02:22:21;99018.00;;;18.98;54.79
54306;BME280;66145;45.188;5.712;2023-05-01T02:24:50;99007.69;;;18.95;54.78
54306;BME280;66145;45.188;5.712;2023-05-01T02:27:20;98951.34;;;18.53;54.70
54306;BME280;66145;45.188;5.712;2023-05-01T02:29:47;98989.59;;;18.85;54.70
54306;BME280;66145;45.188;5.712;2023-05-01T02:32:13;99022.19;;;19.04;54.69
54306;BME280;66145;45.188;5.712;2023-05-01T02:34:38;98989.44;;;18.81;54.90
54306;BME280;66145;45.188;5.712;2023-05-01T02:37:05;98979.59;;;18.80;55.02
54306;BME280;66145;45.188;5.712;2023-05-01T02:39:32;99018.16;;;19.02;55.01
54306;BME280;66145;45.188;5.712;2023-05-01T02:41:59;99020.13;;;19.01;54.75
54306;BME280;66145;45.188;5.712;2023-05-01T02:44:31;98984.91;;;18.77;55.00
54306;BME280;66145;45.188;5.712;2023-05-01T02:47:02;99005.41;;;18.88;55.16
54306;BME280;66145;45.188;5.712;2023-05-01T02:49:30;99003.94;;;18.91;55.19
54306;BME280;66145;45.188;5.712;2023-05-01T02:51:56;98991.81;;;18.74;55.46
54306;BME280;66145;45.188;5.712;2023-05-01T02:54:22;98975.84;;;18.59;55.09
54306;BME280;66145;45.188;5.712;2023-05-01T02:56:47;98900.06;;;18.10;55.11
54306;BME280;66145;45.188;5.712;2023-05-01T02:59:13;98985.22;;;18.66;55.11
54306;BME280;66145;45.188;5.712;2023-05-01T03:01:38;99023.13;;;18.91;55.11
54306;BME280;66145;45.188;5.712;2023-05-01T03:04:04;99018.66;;;18.95;55.07
54306;BME280;66145;45.188;5.712;2023-05-01T03:06:29;99002.31;;;18.90;55.18
54306;BME280;66145;45.188;5.712;2023-05-01T03:08:55;99013.31;;;18.98;55.01
54306;BME280;66145;45.188;5.712;2023-05-01T03:11:20;99006.22;;;18.97;55.13
54306;BME280;66145;45.188;5.712;2023-05-01T03:13:46;98947.34;;;18.68;54.69
54306;BME280;66145;45.188;5.712;2023-05-01T03:16:11;99010.75;;;19.11;54.87
54306;BME280;66145;45.188;5.712;2023-05-01T03:18:37;99003.63;;;19.10;54.84
54306;BME280;66145;45.188;5.712;2023-05-01T03:21:02;98967.50;;;18.81;54.80
54306;BME280;66145;45.188;5.712;2023-05-01T03:23:28;98999.47;;;19.04;54.60
54306;BME280;66145;45.188;5.712;2023-05-01T03:25:53;98977.03;;;18.93;54.93
54306;BME280;66145;45.188;5.712;2023-05-01T03:28:18;98987.97;;;18.93;55.02
54306;BME280;66145;45.188;5.712;2023-05-01T03:30:45;98992.84;;;18.96;54.78
54306;BME280;66145;45.188;5.712;2023-05-01T03:33:11;99001.38;;;19.03;55.06
54306;BME280;66145;45.188;5.712;2023-05-01T03:35:36;98949.44;;;18.63;55.08
54306;BME280;66145;45.188;5.712;2023-05-01T03:38:02;98999.72;;;18.93;54.98
54306;BME280;66145;45.188;5.712;2023-05-01T03:40:27;98989.75;;;18.89;55.07
54306;BME280;66145;45.188;5.712;2023-05-01T03:42:52;99011.22;;;19.04;54.84
54306;BME280;66145;45.188;5.712;2023-05-01T03:45:18;98980.25;;;18.86;54.99
54306;BME280;66145;45.188;5.712;2023-05-01T03:47:43;98943.97;;;18.72;54.57
54306;BME280;66145;45.188;5.712;2023-05-01T03:50:09;98980.09;;;18.91;54.88
54306;BME280;66145;45.188;5.712;2023-05-01T03:52:35;98971.88;;;18.91;54.80
54306;BME280;66145;45.188;5.712;2023-05-01T03:55:01;99005.25;;;19.11;54.93
54306;BME280;66145;45.188;5.712;2023-05-01T03:57:26;98993.50;;;19.02;54.78
54306;BME280;66145;45.188;5.712;2023-05-01T03:59:52;99010.91;;;19.14;54.96
54306;BME280;66145;45.188;5.712;2023-05-01T04:02:18;98982.50;;;18.93;54.90
54306;BME280;66145;45.188;5.712;2023-05-01T04:04:44;99010.75;;;19.11;54.74
54306;BME280;66145;45.188;5.712;2023-05-01T04:07:09;98969.78;;;18.88;54.93
54306;BME280;66145;45.188;5.712;2023-05-01T04:09:35;98943.63;;;18.73;54.89
54306;BME280;66145;45.188;5.712;2023-05-01T04:12:01;98993.16;;;19.03;54.93
54306;BME280;66145;45.188;5.712;2023-05-01T04:14:27;98994.28;;;19.02;55.01
54306;BME280;66145;45.188;5.712;2023-05-01T04:16:52;98987.88;;;18.98;54.76
54306;BME280;66145;45.188;5.712;2023-05-01T04:19:18;98982.38;;;18.98;54.78
54306;BME280;66145;45.188;5.712;2023-05-01T04:21:43;98956.56;;;18.81;55.28
54306;BME280;66145;45.188;5.712;2023-05-01T04:24:08;98939.75;;;18.65;54.83
54306;BME280;66145;45.188;5.712;2023-05-01T04:26:34;99003.97;;;19.08;55.04
54306;BME280;66145;45.188;5.712;2023-05-01T04:28:59;98910.59;;;18.52;54.77
54306;BME280;66145;45.188;5.712;2023-05-01T04:31:25;98950.44;;;18.76;54.97
54306;BME280;66145;45.188;5.712;2023-05-01T04:33:50;99004.47;;;19.10;55.13
54306;BME280;66145;45.188;5.712;2023-05-01T04:36:15;99001.72;;;19.10;54.94
54306;BME280;66145;45.188;5.712;2023-05-01T04:38:42;98995.09;;;19.03;54.83
54306;BME280;66145;45.188;5.712;2023-05-01T04:41:07;99003.63;;;19.10;54.75
54306;BME280;66145;45.188;5.712;2023-05-01T04:43:32;98983.28;;;18.93;54.89
54306;BME280;66145;45.188;5.712;2023-05-01T04:45:58;99017.53;;;19.13;54.96
54306;BME280;66145;45.188;5.712;2023-05-01T04:48:23;98982.34;;;18.89;55.05
54306;BME280;66145;45.188;5.712;2023-05-01T04:50:48;99002.50;;;19.02;54.85
54306;BME280;66145;45.188;5.712;2023-05-01T04:53:14;99016.88;;;19.08;54.88
54306;BME280;66145;45.188;5.712;2023-05-01T04:55:39;99009.31;;;19.05;54.87
54306;BME280;66145;45.188;5.712;2023-05-01T04:58:04;99020.75;;;19.07;54.92
54306;BME280;66145;45.188;5.712;2023-05-01T05:00:30;99009.16;;;19.01;55.03
54306;BME280;66145;45.188;5.712;2023-05-01T05:02:55;98979.91;;;18.79;55.03
54306;BME280;66145;45.188;5.712;2023-05-01T05:05:21;99012.19;;;18.99;54.96
54306;BME280;66145;45.188;5.712;2023-05-01T05:07:46;98992.97;;;18.91;54.99
54306;BME280;66145;45.188;5.712;2023-05-01T05:10:12;99025.75;;;19.13;54.91
54306;BME280;66145;45.188;5.712;2023-05-01T05:12:37;99012.19;;;19.08;54.71
54306;BME280;66145;45.188;5.712;2023-05-01T05:15:02;98990.41;;;18.94;54.88
54306;BME280;66145;45.188;5.712;2023-05-01T05:17:28;99023.00;;;19.05;54.65
54306;BME280;66145;45.188;5.712;2023-05-01T05:19:53;99001.38;;;18.94;54.67
54306;BME280;66145;45.188;5.712;2023-05-01T05:22:18;99021.88;;;19.14;54.84
54306;BME280;66145;45.188;5.712;2023-05-01T05:24:44;99023.50;;;19.07;54.89
54306;BME280;66145;45.188;5.712;2023-05-01T05:27:11;99028.50;;;19.13;54.59
54306;BME280;66145;45.188;5.712;2023-05-01T05:29:36;98985.22;;;18.75;54.89
54306;BME280;66145;45.188;5.712;2023-05-01T05:32:01;98951.53;;;18.57;54.63
54306;BME280;66145;45.188;5.712;2023-05-01T05:34:27;98992.31;;;18.85;54.88
54306;BME280;66145;45.188;5.712;2023-05-01T05:36:53;98983.78;;;18.69;55.12
54306;BME280;66145;45.188;5.712;2023-05-01T05:39:20;99024.78;;;19.00;54.86
54306;BME280;66145;45.188;5.712;2023-05-01T05:41:46;99022.47;;;18.94;54.97
54306;BME280;66145;45.188;5.712;2023-05-01T05:44:13;99008.44;;;18.87;55.01
54306;BME280;66145;45.188;5.712;2023-05-01T05:46:38;99005.69;;;18.87;55.07
54306;BME280;66145;45.188;5.712;2023-05-01T05:49:03;99044.31;;;19.08;55.00
54306;BME280;66145;45.188;5.712;2023-05-01T05:51:29;98990.41;;;18.77;54.82
54306;BME280;66145;45.188;5.712;2023-05-01T05:53:54;99017.69;;;18.99;54.73
54306;BME280;66145;45.188;5.712;2023-05-01T05:56:20;99040.09;;;19.10;54.88
54306;BME280;66145;45.188;5.712;2023-05-01T05:58:45;99020.13;;;19.01;54.51
54306;BME280;66145;45.188;5.712;2023-05-01T06:01:10;99006.88;;;18.94;54.69
54306;BME280;66145;45.188;5.712;2023-05-01T06:03:36;99009.25;;;18.87;54.78
54306;BME280;66145;45.188;5.712;2023-05-01T06:06:02;99040.25;;;19.14;54.81
54306;BME280;66145;45.188;5.712;2023-05-01T06:08:27;99015.72;;;18.91;54.74
54306;BME280;66145;45.188;5.712;2023-05-01T06:10:53;99046.72;;;19.09;54.73
54306;BME280;66145;45.188;5.712;2023-05-01T06:13:18;99049.94;;;19.11;54.81
54306;BME280;66145;45.188;5.712;2023-05-01T06:15:43;99054.94;;;19.09;54.33
54306;BME280;66145;45.188;5.712;2023-05-01T06:18:10;99028.28;;;18.92;54.97
54306;BME280;66145;45.188;5.712;2023-05-01T06:20:35;98993.91;;;18.68;54.58
54306;BME280;66145;45.188;5.712;2023-05-01T06:23:01;99041.84;;;18.97;54.94
54306;BME280;66145;45.188;5.712;2023-05-01T06:25:26;99011.66;;;18.80;54.92
54306;BME280;66145;45.188;5.712;2023-05-01T06:27:51;99052.53;;;19.08;54.88
54306;BME280;66145;45.188;5.712;2023-05-01T06:30:17;99019.59;;;18.90;54.89
54306;BME280;66145;45.188;5.712;2023-05-01T06:32:44;99011.50;;;18.85;54.82
54306;BME280;66145;45.188;5.712;2023-05-01T06:35:11;99053.16;;;19.13;54.78
54306;BME280;66145;45.188;5.712;2023-05-01T06:37:36;99045.72;;;19.05;54.81
54306;BME280;66145;45.188;5.712;2023-05-01T06:40:03;99056.56;;;19.10;54.73
54306;BME280;66145;45.188;5.712;2023-05-01T06:42:29;99033.78;;;18.92;54.82
54306;BME280;66145;45.188;5.712;2023-05-01T06:44:54;99067.84;;;19.09;54.73
54306;BME280;66145;45.188;5.712;2023-05-01T06:47:20;99061.69;;;19.03;54.89
54306;BME280;66145;45.188;5.712;2023-05-01T06:49:45;99061.88;;;18.98;54.70
54306;BME280;66145;45.188;5.712;2023-05-01T06:52:11;99051.81;;;18.93;54.73
54306;BME280;66145;45.188;5.712;2023-05-01T06:54:36;99068.66;;;19.09;54.88
54306;BME280;66145;45.188;5.712;2023-05-01T06:57:01;99013.09;;;18.68;54.78
54306;BME280;66145;45.188;5.712;2023-05-01T06:59:27;99030.19;;;18.83;54.79
54306;BME280;66145;45.188;5.712;2023-05-01T07:01:52;99071.22;;;19.06;54.82
54306;BME280;66145;45.188;5.712;2023-05-01T07:04:17;99037.94;;;18.81;54.80
54306;BME280;66145;45.188;5.712;2023-05-01T07:06:43;99062.81;;;19.02;54.89
54306;BME280;66145;45.188;5.712;2023-05-01T07:09:08;99061.69;;;19.03;54.62
54306;BME280;66145;45.188;5.712;2023-05-01T07:11:34;99054.72;;;18.88;54.79
54306;BME280;66145;45.188;5.712;2023-05-01T07:14:00;99049.59;;;18.95;54.63
54306;BME280;66145;45.188;5.712;2023-05-01T07:16:26;99074.63;;;19.11;54.57
54306;BME280;66145;45.188;5.712;2023-05-01T07:18:51;99078.16;;;19.12;54.56
54306;BME280;66145;45.188;5.712;2023-05-01T07:21:16;99062.81;;;19.02;54.43
54306;BME280;66145;45.188;5.712;2023-05-01T07:23:42;99073.78;;;19.11;54.51
54306;BME280;66145;45.188;5.712;2023-05-01T07:26:07;99029.91;;;18.84;54.64
54306;BME280;66145;45.188;5.712;2023-05-01T07:28:32;99043.44;;;18.90;54.71
54306;BME280;66145;45.188;5.712;2023-05-01T07:30:58;99040.53;;;18.86;54.92
54306;BME280;66145;45.188;5.712;2023-05-01T07:33:25;99076.38;;;19.07;54.74
54306;BME280;66145;45.188;5.712;2023-05-01T07:35:51;99042.63;;;18.89;54.64
54306;BME280;66145;45.188;5.712;2023-05-01T07:38:17;99070.72;;;19.04;54.89
54306;BME280;66145;45.188;5.712;2023-05-01T07:40:42;99059.44;;;18.96;54.86
54306;BME280;66145;45.188;5.712;2023-05-01T07:43:08;99027.59;;;18.78;54.76
54306;BME280;66145;45.188;5.712;2023-05-01T07:45:37;99031.47;;;18.85;54.83
54306;BME280;66145;45.188;5.712;2023-05-01T07:48:03;99060.25;;;18.97;54.80
54306;BME280;66145;45.188;5.712;2023-05-01T07:50:29;99027.78;;;18.73;54.70
54306;BME280;66145;45.188;5.712;2023-05-01T07:52:55;99039.25;;;18.92;54.57
54306;BME280;66145;45.188;5.712;2023-05-01T07:55:21;99065.25;;;19.12;54.72
54306;BME280;66145;45.188;5.712;2023-05-01T07:57:47;99059.78;;;19.04;54.85
54306;BME280;66145;45.188;5.712;2023-05-01T08:00:13;99073.78;;;19.11;54.51
54306;BME280;66145;45.188;5.712;2023-05-01T08:02:38;99042.78;;;18.93;54.51
54306;BME280;66145;45.188;5.712;2023-05-01T08:05:05;99046.66;;;18.92;54.66
54306;BME280;66145;45.188;5.712;2023-05-01T08:07:30;99055.06;;;18.95;54.58
54306;BME280;66145;45.188;5.712;2023-05-01T08:09:56;99070.88;;;19.07;54.55
54306;BME280;66145;45.188;5.712;2023-05-01T08:12:21;99050.84;;;18.89;54.60
54306;BME280;66145;45.188;5.712;2023-05-01T08:14:46;99074.44;;;18.99;54.68
54306;BME280;66145;45.188;5.712;2023-05-01T08:17:12;99082.97;;;19.06;54.72
54306;BME280;66145;45.188;5.712;2023-05-01T08:19:37;99074.44;;;18.99;54.51
54306;BME280;66145;45.188;5.712;2023-05-01T08:22:02;99067.59;;;18.88;54.60
54306;BME280;66145;45.188;5.712;2023-05-01T08:24:28;99081.69;;;18.95;54.79
54306;BME280;66145;45.188;5.712;2023-05-01T08:26:54;99061.97;;;18.84;54.68
54306;BME280;66145;45.188;5.712;2023-05-01T08:29:19;99054.38;;;18.81;54.62
54306;BME280;66145;45.188;5.712;2023-05-01T08:31:44;99075.06;;;18.96;54.56
54306;BME280;66145;45.188;5.712;2023-05-01T08:34:10;99082.50;;;19.04;54.44
54306;BME280;66145;45.188;5.712;2023-05-01T08:36:35;99055.19;;;18.81;54.58
54306;BME280;66145;45.188;5.712;2023-05-01T08:39:01;99061.19;;;18.92;54.58
54306;BME280;66145;45.188;5.712;2023-05-01T08:41:28;99027.63;;;18.69;54.63
54306;BME280;66145;45.188;5.712;2023-05-01T08:43:56;99062.63;;;18.90;54.55
54306;BME280;66145;45.188;5.712;2023-05-01T08:49:20;99097.50;;;19.07;54.57
54306;BME280;66145;45.188;5.712;2023-05-01T08:51:49;99067.31;;;18.89;54.40
54306;BME280;66145;45.188;5.712;2023-05-01T08:54:18;99097.16;;;18.99;54.52
54306;BME280;66145;45.188;5.712;2023-05-01T08:56:45;99063.56;;;18.76;54.32
54306;BME280;66145;45.188;5.712;2023-05-01T08:59:12;99110.56;;;19.01;54.53
54306;BME280;66145;45.188;5.712;2023-05-01T09:01:40;99099.41;;;18.97;54.45
54306;BME280;66145;45.188;5.712;2023-05-01T09:04:06;99107.34;;;18.99;54.70
54306;BME280;66145;45.188;5.712;2023-05-01T09:06:32;99101.13;;;18.93;54.58
54306;BME280;66145;45.188;5.712;2023-05-01T09:08:58;99087.59;;;18.88;54.43
54306;BME280;66145;45.188;5.712;2023-05-01T09:11:24;99093.22;;;18.83;54.51
54306;BME280;66145;45.188;5.712;2023-05-01T09:13:50;99086.75;;;18.79;54.61
54306;BME280;66145;45.188;5.712;2023-05-01T09:16:16;99110.16;;;18.85;54.74
54306;BME280;66145;45.188;5.712;2023-05-01T09:18:42;99121.28;;;18.89;54.62
54306;BME280;66145;45.188;5.712;2023-05-01T09:21:08;99132.75;;;18.91;54.70
54306;BME280;66145;45.188;5.712;2023-05-01T09:23:34;99143.41;;;18.92;54.78
54306;BME280;66145;45.188;5.712;2023-05-01T09:26:03;99125.31;;;18.82;54.59
54306;BME280;66145;45.188;5.712;2023-05-01T09:28:43;99143.59;;;18.96;54.75
54306;BME280;66145;45.188;5.712;2023-05-01T09:31:26;99150.38;;;18.98;54.50
54306;BME280;66145;45.188;5.712;2023-05-01T09:33:58;99113.03;;;18.80;54.56
54306;BME280;66145;45.188;5.712;2023-05-01T09:36:28;99116.44;;;18.77;54.63
54306;BME280;66145;45.188;5.712;2023-05-01T09:38:58;99148.13;;;19.00;54.67
54306;BME280;66145;45.188;5.712;2023-05-01T09:41:27;99114.50;;;18.77;54.68
54306;BME280;66145;45.188;5.712;2023-05-01T09:43:54;99124.50;;;18.82;54.64
54306;BME280;66145;45.188;5.712;2023-05-01T09:46:22;99151.50;;;18.97;54.57
54306;BME280;66145;45.188;5.712;2023-05-01T09:49:06;99119.97;;;18.77;54.62
54306;BME280;66145;45.188;5.712;2023-05-01T09:51:34;99149.38;;;18.94;54.50
54306;BME280;66145;45.188;5.712;2023-05-01T09:54:01;99143.69;;;18.91;54.77
54306;BME280;66145;45.188;5.712;2023-05-01T09:56:31;99148.56;;;18.94;54.57
54306;BME280;66145;45.188;5.712;2023-05-01T09:58:58;99123.22;;;18.79;54.67
54306;BME280;66145;45.188;5.712;2023-05-01T10:01:44;99109.63;;;18.65;54.63
54306;BME280;66145;45.188;5.712;2023-05-01T10:04:10;99156.28;;;18.92;54.93
54306;BME280;66145;45.188;5.712;2023-05-01T10:06:37;99095.72;;;18.53;54.62
54306;BME280;66145;45.188;5.712;2023-05-01T10:09:03;99148.03;;;18.83;54.76
54306;BME280;66145;45.188;5.712;2023-05-01T10:11:46;99126.53;;;18.67;55.02
54306;BME280;66145;45.188;5.712;2023-05-01T10:14:12;99167.75;;;18.94;55.17
54306;BME280;66145;45.188;5.712;2023-05-01T10:16:37;99178.59;;;18.99;54.75
54306;BME280;66145;45.188;5.712;2023-05-01T10:19:04;99136.25;;;18.74;55.01
54306;BME280;66145;45.188;5.712;2023-05-01T10:21:30;99177.09;;;18.93;55.16
54306;BME280;66145;45.188;5.712;2023-05-01T10:23:57;99158.50;;;18.81;55.16
54306;BME280;66145;45.188;5.712;2023-05-01T10:26:23;99154.47;;;18.78;55.39
54306;BME280;66145;45.188;5.712;2023-05-01T10:28:50;99181.63;;;18.97;55.07
54306;BME280;66145;45.188;5.712;2023-05-01T10:31:16;99143.63;;;18.73;55.47
54306;BME280;66145;45.188;5.712;2023-05-01T10:33:43;99151.56;;;18.75;55.60
54306;BME280;66145;45.188;5.712;2023-05-01T10:36:21;99176.44;;;18.87;55.36
54306;BME280;66145;45.188;5.712;2023-05-01T10:38:49;99151.22;;;18.76;55.51
54306;BME280;66145;45.188;5.712;2023-05-01T10:41:15;99130.38;;;18.58;55.57
54306;BME280;66145;45.188;5.712;2023-05-01T10:43:43;99176.59;;;18.91;55.48
54306;BME280;66145;45.188;5.712;2023-05-01T10:51:16;99150.91;;;18.78;55.41
54306;BME280;66145;45.188;5.712;2023-05-01T10:53:45;99160.28;;;18.77;55.50
54306;BME280;66145;45.188;5.712;2023-05-01T10:59:01;99106.19;;;18.51;55.59
54306;BME280;66145;45.188;5.712;2023-05-01T11:01:34;99129.63;;;18.66;55.46
54306;BME280;66145;45.188;5.712;2023-05-01T11:04:05;99134.63;;;18.73;55.77
54306;BME280;66145;45.188;5.712;2023-05-01T11:06:34;99171.31;;;18.94;55.54
54306;BME280;66145;45.188;5.712;2023-05-01T11:12:06;99171.50;;;18.98;55.45
54306;BME280;66145;45.188;5.712;2023-05-01T11:20:06;99117.38;;;18.72;55.75
54306;BME280;66145;45.188;5.712;2023-05-01T11:22:36;99088.00;;;18.55;55.38
54306;BME280;66145;45.188;5.712;2023-05-01T11:25:02;99110.47;;;18.75;55.40
54306;BME280;66145;45.188;5.712;2023-05-01T11:27:29;99142.25;;;18.93;55.44
54306;BME280;66145;45.188;5.712;2023-05-01T11:29:54;99109.16;;;18.72;55.38
54306;BME280;66145;45.188;5.712;2023-05-01T11:32:26;99144.53;;;18.91;55.33
54306;BME280;66145;45.188;5.712;2023-05-01T11:34:52;99094.78;;;18.66;55.57
54306;BME280;66145;45.188;5.712;2023-05-01T11:37:18;99081.91;;;18.67;55.55
54306;BME280;66145;45.188;5.712;2023-05-01T11:39:50;99121.78;;;18.91;55.43
54306;BME280;66145;45.188;5.712;2023-05-01T11:42:19;99115.50;;;18.90;55.38
54306;BME280;66145;45.188;5.712;2023-05-01T11:45:04;99118.53;;;18.89;55.41
54306;BME280;66145;45.188;5.712;2023-05-01T11:47:33;99081.72;;;18.63;55.70
54306;BME280;66145;45.188;5.712;2023-05-01T11:49:59;99086.09;;;18.73;55.46
54306;BME280;66145;45.188;5.712;2023-05-01T11:52:27;99075.47;;;18.72;55.55
54306;BME280;66145;45.188;5.712;2023-05-01T11:54:52;99110.50;;;18.92;55.41
54306;BME280;66145;45.188;5.712;2023-05-01T11:57:17;99080.50;;;18.78;55.45
54306;BME280;66145;45.188;5.712;2023-05-01T11:59:45;99052.41;;;18.64;55.48
54306;BME280;66145;45.188;5.712;2023-05-01T12:02:19;99064.53;;;18.72;55.35
54306;BME280;66145;45.188;5.712;2023-05-01T12:04:45;99103.59;;;18.95;55.49
54306;BME280;66145;45.188;5.712;2023-05-01T12:07:20;99080.66;;;18.82;55.27
54306;BME280;66145;45.188;5.712;2023-05-01T12:09:47;99075.34;;;18.77;55.24
54306;BME280;66145;45.188;5.712;2023-05-01T12:12:12;99080.97;;;18.80;55.22
54306;BME280;66145;45.188;5.712;2023-05-01T12:14:39;99101.97;;;18.94;55.36
54306;BME280;66145;45.188;5.712;2023-05-01T12:17:05;99105.16;;;18.87;55.42
54306;BME280;66145;45.188;5.712;2023-05-01T12:19:31;99104.19;;;18.83;55.30
54306;BME280;66145;45.188;5.712;2023-05-01T12:22:08;99059.16;;;18.58;55.37
54306;BME280;66145;45.188;5.712;2023-05-01T12:24:35;99098.84;;;18.78;55.44
54306;BME280;66145;45.188;5.712;2023-05-01T12:27:01;99067.06;;;18.59;55.43
54306;BME280;66145;45.188;5.712;2023-05-01T12:29:40;99100.97;;;18.81;55.06
54306;BME280;66145;45.188;5.712;2023-05-01T12:32:07;99099.53;;;18.83;55.37
54306;BME280;66145;45.188;5.712;2023-05-01T12:34:32;99119.38;;;18.89;55.33
54306;BME280;66145;45.188;5.712;2023-05-01T12:36:58;99089.47;;;18.70;55.55
54306;BME280;66145;45.188;5.712;2023-05-01T12:39:24;99100.16;;;18.80;55.42
54306;BME280;66145;45.188;5.712;2023-05-01T12:41:51;99116.00;;;18.92;55.61
54306;BME280;66145;45.188;5.712;2023-05-01T12:44:25;99115.38;;;18.95;55.66
54306;BME280;66145;45.188;5.712;2023-05-01T12:46:58;99108.41;;;18.89;55.33
54306;BME280;66145;45.188;5.712;2023-05-01T12:49:24;99115.19;;;18.92;55.57
54306;BME280;66145;45.188;5.712;2023-05-01T12:51:51;99113.88;;;18.89;55.63
54306;BME280;66145;45.188;5.712;2023-05-01T12:54:24;99105.53;;;18.94;55.45
54306;BME280;66145;45.188;5.712;2023-05-01T12:56:50;99069.19;;;18.71;55.30
54306;BME280;66145;45.188;5.712;2023-05-01T12:59:23;99090.97;;;18.85;55.68
54306;BME280;66145;45.188;5.712;2023-05-01T13:01:58;99101.47;;;18.92;55.48
54306;BME280;66145;45.188;5.712;2023-05-01T13:04:25;99073.72;;;18.76;55.26
54306;BME280;66145;45.188;5.712;2023-05-01T13:06:54;99098.56;;;18.88;55.51
54306;BME280;66145;45.188;5.712;2023-05-01T13:09:21;99057.91;;;18.73;55.55
54306;BME280;66145;45.188;5.712;2023-05-01T13:12:00;99027.56;;;18.51;55.62
54306;BME280;66145;45.188;5.712;2023-05-01T13:14:28;99078.53;;;18.79;55.63
54306;BME280;66145;45.188;5.712;2023-05-01T13:16:54;99074.88;;;18.83;55.47
54306;BME280;66145;45.188;5.712;2023-05-01T13:19:24;99000.63;;;18.36;55.49
54306;BME280;66145;45.188;5.712;2023-05-01T13:21:54;99094.50;;;18.85;55.94
54306;BME280;66145;45.188;5.712;2023-05-01T13:24:20;99101.59;;;18.87;55.59
54306;BME280;66145;45.188;5.712;2023-05-01T13:26:46;99098.41;;;18.84;55.71
54306;BME280;66145;45.188;5.712;2023-05-01T13:29:13;99083.38;;;18.73;55.57
54306;BME280;66145;45.188;5.712;2023-05-01T13:31:43;99090.16;;;18.76;55.58
54306;BME280;66145;45.188;5.712;2023-05-01T13:34:09;99135.69;;;18.94;55.66